sensor_id;sensor_type;location;lat;lon;timestamp;P1;durP1;ratioP1;P2;durP2;ratioP2
22080;SDS011;11207;59.512;18.050;2023-07-30T00:01:15;3.50;;;3.00;;
22080;SDS011;11207;59.512;18.050;2023-07-30T00:03:40;3.43;;;3.13;;
22080;SDS011;11207;59.512;18.050;2023-07-30T00:06:06;3.10;;;2.80;;
22080;SDS011;11207;59.512;18.050;2023-07-30T00:08:31;5.27;;;3.10;;
22080;SDS011;11207;59.512;18.050;2023-07-30T00:10:57;4.87;;;3.00;;
22080;SDS011;11207;59.512;18.050;2023-07-30T00:13:23;3.10;;;2.80;;
22080;SDS011;11207;59.512;18.050;2023-07-30T00:15:49;3.67;;;2.97;;
22080;SDS011;11207;59.512;18.050;2023-07-30T00:18:15;4.03;;;2.80;;
22080;SDS011;11207;59.512;18.050;2023-07-30T00:20:41;3.53;;;2.90;;
22080;SDS011;11207;59.512;18.050;2023-07-30T00:23:07;3.13;;;2.83;;
22080;SDS011;11207;59.512;18.050;2023-07-30T00:25:32;3.83;;;3.00;;
22080;SDS011;11207;59.512;18.050;2023-07-30T00:27:58;3.43;;;3.00;;
22080;SDS011;11207;59.512;18.050;2023-07-30T00:30:24;4.07;;;3.10;;
22080;SDS011;11207;59.512;18.050;2023-07-30T00:32:49;3.43;;;2.93;;
22080;SDS011;11207;59.512;18.050;2023-07-30T00:35:15;3.40;;;2.70;;
22080;SDS011;11207;59.512;18.050;2023-07-30T00:37:41;3.80;;;2.80;;
22080;SDS011;11207;59.512;18.050;2023-07-30T00:40:07;4.57;;;3.00;;
22080;SDS011;11207;59.512;18.050;2023-07-30T00:42:33;3.03;;;2.80;;
22080;SDS011;11207;59.512;18.050;2023-07-30T00:44:58;4.87;;;3.37;;
22080;SDS011;11207;59.512;18.050;2023-07-30T00:47:25;3.27;;;2.97;;
22080;SDS011;11207;59.512;18.050;2023-07-30T00:49:52;3.00;;;2.70;;
22080;SDS011;11207;59.512;18.050;2023-07-30T00:52:18;5.27;;;3.40;;
22080;SDS011;11207;59.512;18.050;2023-07-30T00:54:46;3.23;;;2.93;;
22080;SDS011;11207;59.512;18.050;2023-07-30T00:57:14;3.60;;;3.10;;
22080;SDS011;11207;59.512;18.050;2023-07-30T00:59:41;4.07;;;3.20;;
22080;SDS011;11207;59.512;18.050;2023-07-30T01:02:07;5.07;;;3.13;;
22080;SDS011;11207;59.512;18.050;2023-07-30T01:04:33;3.57;;;2.80;;
22080;SDS011;11207;59.512;18.050;2023-07-30T01:06:59;3.70;;;3.00;;
22080;SDS011;11207;59.512;18.050;2023-07-30T01:09:24;4.73;;;3.07;;
22080;SDS011;11207;59.512;18.050;2023-07-30T01:11:51;5.30;;;3.40;;
22080;SDS011;11207;59.512;18.050;2023-07-30T01:14:18;4.43;;;3.50;;
22080;SDS011;11207;59.512;18.050;2023-07-30T01:16:45;4.47;;;3.37;;
22080;SDS011;11207;59.512;18.050;2023-07-30T01:19:11;5.50;;;3.17;;
22080;SDS011;11207;59.512;18.050;2023-07-30T01:21:37;4.83;;;3.20;;
22080;SDS011;11207;59.512;18.050;2023-07-30T01:24:03;3.83;;;3.30;;
22080;SDS011;11207;59.512;18.050;2023-07-30T01:26:52;7.77;;;3.53;;
22080;SDS011;11207;59.512;18.050;2023-07-30T01:29:25;4.13;;;3.30;;
22080;SDS011;11207;59.512;18.050;2023-07-30T01:32:07;4.03;;;3.00;;
22080;SDS011;11207;59.512;18.050;2023-07-30T01:34:35;4.67;;;2.93;;
22080;SDS011;11207;59.512;18.050;2023-07-30T01:37:03;3.83;;;2.93;;
22080;SDS011;11207;59.512;18.050;2023-07-30T01:39:32;4.10;;;3.27;;
22080;SDS011;11207;59.512;18.050;2023-07-30T01:41:58;4.50;;;3.50;;
22080;SDS011;11207;59.512;18.050;2023-07-30T01:44:24;3.40;;;3.10;;
22080;SDS011;11207;59.512;18.050;2023-07-30T01:46:49;3.50;;;3.20;;
22080;SDS011;11207;59.512;18.050;2023-07-30T01:49:15;3.77;;;3.33;;
22080;SDS011;11207;59.512;18.050;2023-07-30T01:51:40;4.40;;;3.33;;
22080;SDS011;11207;59.512;18.050;2023-07-30T01:54:06;3.43;;;3.13;;
22080;SDS011;11207;59.512;18.050;2023-07-30T01:56:31;4.37;;;3.27;;
22080;SDS011;11207;59.512;18.050;2023-07-30T01:58:57;5.50;;;3.60;;
22080;SDS011;11207;59.512;18.050;2023-07-30T02:01:22;3.97;;;3.07;;
22080;SDS011;11207;59.512;18.050;2023-07-30T02:03:48;5.17;;;3.30;;
22080;SDS011;11207;59.512;18.050;2023-07-30T02:06:14;3.20;;;2.90;;
22080;SDS011;11207;59.512;18.050;2023-07-30T02:08:39;4.40;;;3.30;;
22080;SDS011;11207;59.512;18.050;2023-07-30T02:11:05;4.27;;;2.80;;
22080;SDS011;11207;59.512;18.050;2023-07-30T02:13:30;4.77;;;3.33;;
22080;SDS011;11207;59.512;18.050;2023-07-30T02:15:56;8.67;;;4.03;;
22080;SDS011;11207;59.512;18.050;2023-07-30T02:18:21;3.97;;;3.23;;
22080;SDS011;11207;59.512;18.050;2023-07-30T02:20:47;5.10;;;3.20;;
22080;SDS011;11207;59.512;18.050;2023-07-30T02:23:14;4.50;;;3.33;;
22080;SDS011;11207;59.512;18.050;2023-07-30T02:25:41;5.87;;;3.50;;
22080;SDS011;11207;59.512;18.050;2023-07-30T02:28:07;5.43;;;3.33;;
22080;SDS011;11207;59.512;18.050;2023-07-30T02:30:33;4.40;;;3.30;;
22080;SDS011;11207;59.512;18.050;2023-07-30T02:32:59;3.67;;;3.20;;
22080;SDS011;11207;59.512;18.050;2023-07-30T02:35:24;2.80;;;2.60;;
22080;SDS011;11207;59.512;18.050;2023-07-30T02:37:50;5.30;;;3.53;;
22080;SDS011;11207;59.512;18.050;2023-07-30T02:40:15;4.43;;;3.23;;
22080;SDS011;11207;59.512;18.050;2023-07-30T02:42:41;3.90;;;3.53;;
22080;SDS011;11207;59.512;18.050;2023-07-30T02:45:07;3.83;;;3.53;;
22080;SDS011;11207;59.512;18.050;2023-07-30T02:47:33;4.47;;;3.53;;
22080;SDS011;11207;59.512;18.050;2023-07-30T02:49:58;6.07;;;3.77;;
22080;SDS011;11207;59.512;18.050;2023-07-30T02:52:24;4.33;;;3.40;;
22080;SDS011;11207;59.512;18.050;2023-07-30T02:54:49;4.67;;;3.60;;
22080;SDS011;11207;59.512;18.050;2023-07-30T02:57:15;4.90;;;3.37;;
22080;SDS011;11207;59.512;18.050;2023-07-30T02:59:40;4.13;;;3.30;;
22080;SDS011;11207;59.512;18.050;2023-07-30T03:02:06;4.43;;;3.77;;
22080;SDS011;11207;59.512;18.050;2023-07-30T03:04:32;5.73;;;3.90;;
22080;SDS011;11207;59.512;18.050;2023-07-30T03:06:58;3.40;;;3.10;;
22080;SDS011;11207;59.512;18.050;2023-07-30T03:09:24;3.47;;;3.10;;
22080;SDS011;11207;59.512;18.050;2023-07-30T03:11:50;3.70;;;3.30;;
22080;SDS011;11207;59.512;18.050;2023-07-30T03:14:16;3.30;;;2.93;;
22080;SDS011;11207;59.512;18.050;2023-07-30T03:16:45;4.50;;;3.60;;
22080;SDS011;11207;59.512;18.050;2023-07-30T03:19:14;4.23;;;3.83;;
22080;SDS011;11207;59.512;18.050;2023-07-30T03:21:40;5.30;;;3.87;;
22080;SDS011;11207;59.512;18.050;2023-07-30T03:24:06;4.00;;;3.53;;
22080;SDS011;11207;59.512;18.050;2023-07-30T03:26:32;5.47;;;3.93;;
22080;SDS011;11207;59.512;18.050;2023-07-30T03:28:57;5.20;;;3.17;;
22080;SDS011;11207;59.512;18.050;2023-07-30T03:31:23;4.73;;;3.63;;
22080;SDS011;11207;59.512;18.050;2023-07-30T03:33:48;4.07;;;3.33;;
22080;SDS011;11207;59.512;18.050;2023-07-30T03:36:14;4.27;;;3.73;;
22080;SDS011;11207;59.512;18.050;2023-07-30T03:38:40;4.23;;;3.43;;
22080;SDS011;11207;59.512;18.050;2023-07-30T03:41:06;3.63;;;3.30;;
22080;SDS011;11207;59.512;18.050;2023-07-30T03:43:32;3.60;;;3.30;;
22080;SDS011;11207;59.512;18.050;2023-07-30T03:45:58;3.93;;;3.20;;
22080;SDS011;11207;59.512;18.050;2023-07-30T03:48:23;4.07;;;3.67;;
22080;SDS011;11207;59.512;18.050;2023-07-30T03:50:49;6.03;;;3.50;;
22080;SDS011;11207;59.512;18.050;2023-07-30T03:53:14;4.90;;;3.80;;
22080;SDS011;11207;59.512;18.050;2023-07-30T03:55:40;5.20;;;3.87;;
22080;SDS011;11207;59.512;18.050;2023-07-30T03:58:06;7.13;;;3.80;;
22080;SDS011;11207;59.512;18.050;2023-07-30T04:00:31;5.00;;;3.60;;
22080;SDS011;11207;59.512;18.050;2023-07-30T04:02:57;5.47;;;4.20;;
22080;SDS011;11207;59.512;18.050;2023-07-30T04:05:23;3.97;;;3.57;;
22080;SDS011;11207;59.512;18.050;2023-07-30T04:07:48;3.77;;;3.43;;
22080;SDS011;11207;59.512;18.050;2023-07-30T04:10:14;6.00;;;3.67;;
22080;SDS011;11207;59.512;18.050;2023-07-30T04:12:40;5.07;;;3.67;;
22080;SDS011;11207;59.512;18.050;2023-07-30T04:15:05;4.47;;;4.00;;
22080;SDS011;11207;59.512;18.050;2023-07-30T04:17:31;5.37;;;3.57;;
22080;SDS011;11207;59.512;18.050;2023-07-30T04:19:57;4.07;;;3.67;;
22080;SDS011;11207;59.512;18.050;2023-07-30T04:22:23;6.73;;;3.83;;
22080;SDS011;11207;59.512;18.050;2023-07-30T04:24:48;4.27;;;3.60;;
22080;SDS011;11207;59.512;18.050;2023-07-30T04:27:14;5.03;;;3.33;;
22080;SDS011;11207;59.512;18.050;2023-07-30T04:29:39;5.00;;;3.80;;
22080;SDS011;11207;59.512;18.050;2023-07-30T04:32:05;5.90;;;3.37;;
22080;SDS011;11207;59.512;18.050;2023-07-30T04:34:31;5.93;;;3.37;;
22080;SDS011;11207;59.512;18.050;2023-07-30T04:36:57;5.23;;;3.90;;
22080;SDS011;11207;59.512;18.050;2023-07-30T04:39:22;6.43;;;3.83;;
22080;SDS011;11207;59.512;18.050;2023-07-30T04:41:48;4.17;;;3.53;;
22080;SDS011;11207;59.512;18.050;2023-07-30T04:44:13;4.77;;;3.70;;
22080;SDS011;11207;59.512;18.050;2023-07-30T04:46:39;6.60;;;3.60;;
22080;SDS011;11207;59.512;18.050;2023-07-30T04:49:04;5.70;;;3.53;;
22080;SDS011;11207;59.512;18.050;2023-07-30T04:51:30;4.10;;;3.47;;
22080;SDS011;11207;59.512;18.050;2023-07-30T04:53:56;5.93;;;3.57;;
22080;SDS011;11207;59.512;18.050;2023-07-30T04:56:21;5.10;;;3.70;;
22080;SDS011;11207;59.512;18.050;2023-07-30T04:58:47;4.07;;;3.30;;
22080;SDS011;11207;59.512;18.050;2023-07-30T05:01:12;3.67;;;2.80;;
22080;SDS011;11207;59.512;18.050;2023-07-30T05:03:38;6.57;;;3.40;;
22080;SDS011;11207;59.512;18.050;2023-07-30T05:06:03;5.57;;;3.83;;
22080;SDS011;11207;59.512;18.050;2023-07-30T05:08:30;4.70;;;3.67;;
22080;SDS011;11207;59.512;18.050;2023-07-30T05:10:55;4.13;;;3.10;;
22080;SDS011;11207;59.512;18.050;2023-07-30T05:13:21;5.00;;;3.50;;
22080;SDS011;11207;59.512;18.050;2023-07-30T05:15:46;7.03;;;3.27;;
22080;SDS011;11207;59.512;18.050;2023-07-30T05:18:12;4.82;;;3.42;;
22080;SDS011;11207;59.512;18.050;2023-07-30T05:20:38;3.57;;;3.00;;
22080;SDS011;11207;59.512;18.050;2023-07-30T05:23:04;3.93;;;3.30;;
22080;SDS011;11207;59.512;18.050;2023-07-30T05:25:31;5.70;;;3.30;;
22080;SDS011;11207;59.512;18.050;2023-07-30T05:27:57;3.77;;;3.20;;
22080;SDS011;11207;59.512;18.050;2023-07-30T05:30:23;4.50;;;3.40;;
22080;SDS011;11207;59.512;18.050;2023-07-30T05:32:48;4.43;;;3.40;;
22080;SDS011;11207;59.512;18.050;2023-07-30T05:35:14;4.73;;;3.50;;
22080;SDS011;11207;59.512;18.050;2023-07-30T05:37:40;5.47;;;3.43;;
22080;SDS011;11207;59.512;18.050;2023-07-30T05:40:06;4.80;;;3.33;;
22080;SDS011;11207;59.512;18.050;2023-07-30T05:42:32;5.67;;;3.20;;
22080;SDS011;11207;59.512;18.050;2023-07-30T05:44:57;4.20;;;3.13;;
22080;SDS011;11207;59.512;18.050;2023-07-30T05:47:23;4.17;;;3.10;;
22080;SDS011;11207;59.512;18.050;2023-07-30T05:49:49;3.58;;;3.00;;
22080;SDS011;11207;59.512;18.050;2023-07-30T05:52:14;4.43;;;3.37;;
22080;SDS011;11207;59.512;18.050;2023-07-30T05:54:40;5.05;;;3.20;;
22080;SDS011;11207;59.512;18.050;2023-07-30T05:57:05;4.47;;;3.12;;
22080;SDS011;11207;59.512;18.050;2023-07-30T05:59:31;6.97;;;3.83;;
22080;SDS011;11207;59.512;18.050;2023-07-30T06:01:56;4.43;;;3.30;;
22080;SDS011;11207;59.512;18.050;2023-07-30T06:04:26;4.22;;;3.33;;
22080;SDS011;11207;59.512;18.050;2023-07-30T06:06:51;7.43;;;3.30;;
22080;SDS011;11207;59.512;18.050;2023-07-30T06:09:17;5.73;;;3.13;;
22080;SDS011;11207;59.512;18.050;2023-07-30T06:11:43;4.57;;;3.00;;
22080;SDS011;11207;59.512;18.050;2023-07-30T06:14:08;3.55;;;2.90;;
22080;SDS011;11207;59.512;18.050;2023-07-30T06:16:34;4.57;;;2.83;;
22080;SDS011;11207;59.512;18.050;2023-07-30T06:18:59;5.57;;;3.58;;
22080;SDS011;11207;59.512;18.050;2023-07-30T06:21:25;4.05;;;2.78;;
22080;SDS011;11207;59.512;18.050;2023-07-30T06:23:50;4.70;;;3.03;;
22080;SDS011;11207;59.512;18.050;2023-07-30T06:26:16;4.05;;;3.03;;
22080;SDS011;11207;59.512;18.050;2023-07-30T06:28:42;5.00;;;3.15;;
22080;SDS011;11207;59.512;18.050;2023-07-30T06:31:07;4.83;;;2.90;;
22080;SDS011;11207;59.512;18.050;2023-07-30T06:33:33;4.05;;;3.12;;
22080;SDS011;11207;59.512;18.050;2023-07-30T06:35:58;3.72;;;2.62;;
22080;SDS011;11207;59.512;18.050;2023-07-30T06:38:24;3.87;;;2.50;;
22080;SDS011;11207;59.512;18.050;2023-07-30T06:40:49;3.28;;;2.58;;
22080;SDS011;11207;59.512;18.050;2023-07-30T06:43:15;4.80;;;3.03;;
22080;SDS011;11207;59.512;18.050;2023-07-30T06:45:40;3.15;;;2.85;;
22080;SDS011;11207;59.512;18.050;2023-07-30T06:48:06;5.12;;;3.33;;
22080;SDS011;11207;59.512;18.050;2023-07-30T06:50:31;4.80;;;3.20;;
22080;SDS011;11207;59.512;18.050;2023-07-30T06:52:57;5.12;;;3.03;;
22080;SDS011;11207;59.512;18.050;2023-07-30T06:55:23;3.17;;;2.70;;
22080;SDS011;11207;59.512;18.050;2023-07-30T06:57:48;6.30;;;2.85;;
22080;SDS011;11207;59.512;18.050;2023-07-30T07:00:14;4.37;;;3.30;;
22080;SDS011;11207;59.512;18.050;2023-07-30T07:02:46;4.45;;;3.45;;
22080;SDS011;11207;59.512;18.050;2023-07-30T07:05:14;5.10;;;2.90;;
22080;SDS011;11207;59.512;18.050;2023-07-30T07:07:40;3.42;;;2.70;;
22080;SDS011;11207;59.512;18.050;2023-07-30T07:10:06;3.90;;;2.70;;
22080;SDS011;11207;59.512;18.050;2023-07-30T07:12:32;4.87;;;2.60;;
22080;SDS011;11207;59.512;18.050;2023-07-30T07:14:57;2.95;;;2.65;;
22080;SDS011;11207;59.512;18.050;2023-07-30T07:17:26;6.12;;;3.17;;
22080;SDS011;11207;59.512;18.050;2023-07-30T07:19:53;4.10;;;2.78;;
22080;SDS011;11207;59.512;18.050;2023-07-30T07:22:18;3.95;;;3.15;;
22080;SDS011;11207;59.512;18.050;2023-07-30T07:24:44;3.50;;;3.20;;
22080;SDS011;11207;59.512;18.050;2023-07-30T07:27:10;4.40;;;3.30;;
22080;SDS011;11207;59.512;18.050;2023-07-30T07:29:36;5.62;;;3.00;;
22080;SDS011;11207;59.512;18.050;2023-07-30T07:32:02;3.43;;;2.77;;
22080;SDS011;11207;59.512;18.050;2023-07-30T07:34:28;3.72;;;2.95;;
22080;SDS011;11207;59.512;18.050;2023-07-30T07:36:54;5.07;;;3.30;;
22080;SDS011;11207;59.512;18.050;2023-07-30T07:39:19;5.15;;;3.40;;
22080;SDS011;11207;59.512;18.050;2023-07-30T07:41:45;4.30;;;3.13;;
22080;SDS011;11207;59.512;18.050;2023-07-30T07:44:11;5.53;;;3.43;;
22080;SDS011;11207;59.512;18.050;2023-07-30T07:46:36;6.22;;;3.87;;
22080;SDS011;11207;59.512;18.050;2023-07-30T07:49:02;5.97;;;3.60;;
22080;SDS011;11207;59.512;18.050;2023-07-30T07:51:28;4.72;;;3.35;;
22080;SDS011;11207;59.512;18.050;2023-07-30T07:53:53;6.20;;;3.70;;
22080;SDS011;11207;59.512;18.050;2023-07-30T07:56:19;4.25;;;3.33;;
22080;SDS011;11207;59.512;18.050;2023-07-30T07:58:45;8.48;;;3.58;;
22080;SDS011;11207;59.512;18.050;2023-07-30T08:01:10;6.25;;;3.28;;
22080;SDS011;11207;59.512;18.050;2023-07-30T08:03:36;6.07;;;3.70;;
22080;SDS011;11207;59.512;18.050;2023-07-30T08:06:02;5.75;;;3.10;;
22080;SDS011;11207;59.512;18.050;2023-07-30T08:08:27;4.68;;;3.65;;
22080;SDS011;11207;59.512;18.050;2023-07-30T08:10:53;5.67;;;3.30;;
22080;SDS011;11207;59.512;18.050;2023-07-30T08:13:19;5.15;;;3.20;;
22080;SDS011;11207;59.512;18.050;2023-07-30T08:15:45;3.97;;;3.03;;
22080;SDS011;11207;59.512;18.050;2023-07-30T08:18:11;6.87;;;2.95;;
22080;SDS011;11207;59.512;18.050;2023-07-30T08:20:36;4.68;;;3.33;;
22080;SDS011;11207;59.512;18.050;2023-07-30T08:23:02;4.75;;;3.28;;
22080;SDS011;11207;59.512;18.050;2023-07-30T08:25:28;5.40;;;3.20;;
22080;SDS011;11207;59.512;18.050;2023-07-30T08:27:53;4.25;;;2.90;;
22080;SDS011;11207;59.512;18.050;2023-07-30T08:30:19;6.35;;;3.35;;
22080;SDS011;11207;59.512;18.050;2023-07-30T08:32:44;5.10;;;3.05;;
22080;SDS011;11207;59.512;18.050;2023-07-30T08:35:10;5.62;;;3.25;;
22080;SDS011;11207;59.512;18.050;2023-07-30T08:37:36;4.75;;;2.75;;
22080;SDS011;11207;59.512;18.050;2023-07-30T08:40:02;4.80;;;2.90;;
22080;SDS011;11207;59.512;18.050;2023-07-30T08:42:28;4.72;;;3.25;;
22080;SDS011;11207;59.512;18.050;2023-07-30T08:44:54;3.95;;;3.12;;
22080;SDS011;11207;59.512;18.050;2023-07-30T08:47:20;4.90;;;3.17;;
22080;SDS011;11207;59.512;18.050;2023-07-30T08:49:45;5.20;;;2.78;;
22080;SDS011;11207;59.512;18.050;2023-07-30T08:52:11;4.43;;;3.17;;
22080;SDS011;11207;59.512;18.050;2023-07-30T08:54:37;4.12;;;2.83;;
22080;SDS011;11207;59.512;18.050;2023-07-30T08:57:04;4.57;;;3.45;;
22080;SDS011;11207;59.512;18.050;2023-07-30T08:59:31;4.40;;;3.17;;
22080;SDS011;11207;59.512;18.050;2023-07-30T09:02:01;5.43;;;3.15;;
22080;SDS011;11207;59.512;18.050;2023-07-30T09:04:28;4.05;;;3.20;;
22080;SDS011;11207;59.512;18.050;2023-07-30T09:07:02;6.03;;;3.08;;
22080;SDS011;11207;59.512;18.050;2023-07-30T09:09:28;4.87;;;3.00;;
22080;SDS011;11207;59.512;18.050;2023-07-30T09:11:54;5.50;;;3.20;;
22080;SDS011;11207;59.512;18.050;2023-07-30T09:14:20;2.85;;;2.53;;
22080;SDS011;11207;59.512;18.050;2023-07-30T09:16:47;4.35;;;2.85;;
22080;SDS011;11207;59.512;18.050;2023-07-30T09:19:16;5.40;;;2.72;;
22080;SDS011;11207;59.512;18.050;2023-07-30T09:21:42;3.78;;;2.80;;
22080;SDS011;11207;59.512;18.050;2023-07-30T09:24:08;3.50;;;2.55;;
22080;SDS011;11207;59.512;18.050;2023-07-30T09:26:44;3.60;;;2.75;;
22080;SDS011;11207;59.512;18.050;2023-07-30T09:29:12;3.85;;;2.85;;
22080;SDS011;11207;59.512;18.050;2023-07-30T09:34:19;3.55;;;2.65;;
22080;SDS011;11207;59.512;18.050;2023-07-30T09:36:45;3.58;;;2.58;;
22080;SDS011;11207;59.512;18.050;2023-07-30T09:39:15;3.30;;;2.70;;
22080;SDS011;11207;59.512;18.050;2023-07-30T09:41:41;3.72;;;2.70;;
22080;SDS011;11207;59.512;18.050;2023-07-30T09:44:07;3.62;;;2.70;;
22080;SDS011;11207;59.512;18.050;2023-07-30T09:46:34;2.85;;;2.53;;
22080;SDS011;11207;59.512;18.050;2023-07-30T09:49:11;2.75;;;2.42;;
22080;SDS011;11207;59.512;18.050;2023-07-30T09:51:37;4.22;;;2.62;;
22080;SDS011;11207;59.512;18.050;2023-07-30T09:54:05;3.25;;;2.70;;
22080;SDS011;11207;59.512;18.050;2023-07-30T09:56:32;2.50;;;2.28;;
22080;SDS011;11207;59.512;18.050;2023-07-30T09:58:58;3.22;;;2.45;;
22080;SDS011;11207;59.512;18.050;2023-07-30T10:01:24;3.62;;;2.30;;
22080;SDS011;11207;59.512;18.050;2023-07-30T10:03:52;2.53;;;2.33;;
22080;SDS011;11207;59.512;18.050;2023-07-30T10:06:23;2.50;;;2.25;;
22080;SDS011;11207;59.512;18.050;2023-07-30T10:08:52;3.25;;;2.37;;
22080;SDS011;11207;59.512;18.050;2023-07-30T10:11:21;3.42;;;2.50;;
22080;SDS011;11207;59.512;18.050;2023-07-30T10:13:48;3.05;;;2.50;;
22080;SDS011;11207;59.512;18.050;2023-07-30T10:16:14;2.40;;;2.15;;
22080;SDS011;11207;59.512;18.050;2023-07-30T10:18:41;3.60;;;2.30;;
22080;SDS011;11207;59.512;18.050;2023-07-30T10:21:08;2.58;;;2.20;;
22080;SDS011;11207;59.512;18.050;2023-07-30T10:23:35;7.60;;;2.55;;
22080;SDS011;11207;59.512;18.050;2023-07-30T10:26:11;2.45;;;1.80;;
22080;SDS011;11207;59.512;18.050;2023-07-30T10:28:36;8.80;;;2.62;;
22080;SDS011;11207;59.512;18.050;2023-07-30T10:31:07;6.12;;;2.75;;
22080;SDS011;11207;59.512;18.050;2023-07-30T10:33:49;9.75;;;2.80;;
22080;SDS011;11207;59.512;18.050;2023-07-30T10:36:18;5.45;;;2.75;;
22080;SDS011;11207;59.512;18.050;2023-07-30T10:38:55;8.32;;;3.30;;
22080;SDS011;11207;59.512;18.050;2023-07-30T10:41:21;5.15;;;2.65;;
22080;SDS011;11207;59.512;18.050;2023-07-30T10:43:50;5.28;;;2.80;;
22080;SDS011;11207;59.512;18.050;2023-07-30T10:46:18;3.12;;;2.50;;
22080;SDS011;11207;59.512;18.050;2023-07-30T10:48:45;3.65;;;2.92;;
22080;SDS011;11207;59.512;18.050;2023-07-30T10:51:13;5.32;;;2.78;;
22080;SDS011;11207;59.512;18.050;2023-07-30T10:53:43;2.55;;;2.35;;
22080;SDS011;11207;59.512;18.050;2023-07-30T10:56:10;3.40;;;2.80;;
22080;SDS011;11207;59.512;18.050;2023-07-30T10:58:36;4.15;;;3.00;;
22080;SDS011;11207;59.512;18.050;2023-07-30T11:01:03;2.97;;;2.67;;
22080;SDS011;11207;59.512;18.050;2023-07-30T11:03:33;4.28;;;3.20;;
22080;SDS011;11207;59.512;18.050;2023-07-30T11:05:59;4.20;;;2.97;;
22080;SDS011;11207;59.512;18.050;2023-07-30T11:08:32;4.20;;;2.90;;
22080;SDS011;11207;59.512;18.050;2023-07-30T11:10:58;3.15;;;2.58;;
22080;SDS011;11207;59.512;18.050;2023-07-30T11:13:24;4.25;;;3.10;;
22080;SDS011;11207;59.512;18.050;2023-07-30T11:15:49;6.55;;;3.05;;
22080;SDS011;11207;59.512;18.050;2023-07-30T11:18:16;5.10;;;3.20;;
22080;SDS011;11207;59.512;18.050;2023-07-30T11:20:41;5.57;;;3.10;;
22080;SDS011;11207;59.512;18.050;2023-07-30T11:26:04;3.30;;;3.00;;
22080;SDS011;11207;59.512;18.050;2023-07-30T11:28:34;3.45;;;3.15;;
22080;SDS011;11207;59.512;18.050;2023-07-30T11:31:07;3.03;;;2.80;;
22080;SDS011;11207;59.512;18.050;2023-07-30T11:33:45;3.97;;;2.70;;
22080;SDS011;11207;59.512;18.050;2023-07-30T11:36:16;3.22;;;2.70;;
22080;SDS011;11207;59.512;18.050;2023-07-30T11:38:45;8.00;;;2.87;;
22080;SDS011;11207;59.512;18.050;2023-07-30T11:41:11;3.67;;;2.53;;
22080;SDS011;11207;59.512;18.050;2023-07-30T11:43:43;6.03;;;2.50;;
22080;SDS011;11207;59.512;18.050;2023-07-30T11:46:10;2.72;;;2.50;;
22080;SDS011;11207;59.512;18.050;2023-07-30T11:48:41;2.70;;;2.40;;
22080;SDS011;11207;59.512;18.050;2023-07-30T11:51:24;2.75;;;2.55;;
22080;SDS011;11207;59.512;18.050;2023-07-30T11:56:25;2.50;;;2.22;;
22080;SDS011;11207;59.512;18.050;2023-07-30T11:59:02;2.15;;;1.95;;
22080;SDS011;11207;59.512;18.050;2023-07-30T12:01:31;1.65;;;1.52;;
22080;SDS011;11207;59.512;18.050;2023-07-30T12:04:02;4.43;;;2.22;;
22080;SDS011;11207;59.512;18.050;2023-07-30T12:06:41;10.65;;;2.78;;
22080;SDS011;11207;59.512;18.050;2023-07-30T12:09:12;8.07;;;2.75;;
22080;SDS011;11207;59.512;18.050;2023-07-30T12:14:21;6.35;;;2.67;;
22080;SDS011;11207;59.512;18.050;2023-07-30T12:16:50;2.85;;;2.20;;
22080;SDS011;11207;59.512;18.050;2023-07-30T12:19:16;4.75;;;2.37;;
22080;SDS011;11207;59.512;18.050;2023-07-30T12:21:41;4.80;;;2.37;;
22080;SDS011;11207;59.512;18.050;2023-07-30T12:24:07;3.03;;;2.42;;
22080;SDS011;11207;59.512;18.050;2023-07-30T12:26:33;5.90;;;2.78;;
22080;SDS011;11207;59.512;18.050;2023-07-30T12:28:59;5.65;;;3.05;;
22080;SDS011;11207;59.512;18.050;2023-07-30T12:31:24;5.70;;;2.92;;
22080;SDS011;11207;59.512;18.050;2023-07-30T12:33:50;5.32;;;2.53;;
22080;SDS011;11207;59.512;18.050;2023-07-30T12:36:15;5.65;;;2.70;;
22080;SDS011;11207;59.512;18.050;2023-07-30T12:38:41;5.97;;;2.58;;
22080;SDS011;11207;59.512;18.050;2023-07-30T12:41:07;6.87;;;2.45;;
22080;SDS011;11207;59.512;18.050;2023-07-30T12:43:33;6.12;;;2.60;;
22080;SDS011;11207;59.512;18.050;2023-07-30T12:45:58;6.75;;;3.03;;
22080;SDS011;11207;59.512;18.050;2023-07-30T12:48:24;5.93;;;2.80;;
22080;SDS011;11207;59.512;18.050;2023-07-30T12:50:49;4.50;;;2.33;;
22080;SDS011;11207;59.512;18.050;2023-07-30T12:53:15;3.75;;;2.62;;
22080;SDS011;11207;59.512;18.050;2023-07-30T12:55:41;2.85;;;2.30;;
22080;SDS011;11207;59.512;18.050;2023-07-30T12:58:06;3.45;;;2.42;;
22080;SDS011;11207;59.512;18.050;2023-07-30T13:00:33;3.45;;;2.30;;
22080;SDS011;11207;59.512;18.050;2023-07-30T13:02:59;2.03;;;1.83;;
22080;SDS011;11207;59.512;18.050;2023-07-30T13:05:25;5.97;;;2.67;;
22080;SDS011;11207;59.512;18.050;2023-07-30T13:07:50;5.03;;;2.70;;
22080;SDS011;11207;59.512;18.050;2023-07-30T13:10:16;3.25;;;2.70;;
22080;SDS011;11207;59.512;18.050;2023-07-30T13:12:42;4.65;;;2.62;;
22080;SDS011;11207;59.512;18.050;2023-07-30T13:15:09;2.30;;;1.95;;
22080;SDS011;11207;59.512;18.050;2023-07-30T13:17:35;3.83;;;2.33;;
22080;SDS011;11207;59.512;18.050;2023-07-30T13:20:02;3.10;;;2.23;;
22080;SDS011;11207;59.512;18.050;2023-07-30T13:22:27;2.28;;;1.90;;
22080;SDS011;11207;59.512;18.050;2023-07-30T13:24:54;5.43;;;2.30;;
22080;SDS011;11207;59.512;18.050;2023-07-30T13:27:20;3.95;;;2.25;;
22080;SDS011;11207;59.512;18.050;2023-07-30T13:29:45;4.77;;;2.20;;
22080;SDS011;11207;59.512;18.050;2023-07-30T13:32:13;3.23;;;2.40;;
22080;SDS011;11207;59.512;18.050;2023-07-30T13:34:38;6.97;;;2.40;;
22080;SDS011;11207;59.512;18.050;2023-07-30T13:37:04;2.40;;;2.20;;
22080;SDS011;11207;59.512;18.050;2023-07-30T13:39:29;4.13;;;2.60;;
22080;SDS011;11207;59.512;18.050;2023-07-30T13:41:55;2.57;;;2.33;;
22080;SDS011;11207;59.512;18.050;2023-07-30T13:44:21;2.30;;;2.10;;
22080;SDS011;11207;59.512;18.050;2023-07-30T13:46:46;4.93;;;2.20;;
22080;SDS011;11207;59.512;18.050;2023-07-30T13:49:12;6.20;;;3.00;;
22080;SDS011;11207;59.512;18.050;2023-07-30T13:51:37;4.43;;;2.67;;
22080;SDS011;11207;59.512;18.050;2023-07-30T13:54:03;3.87;;;2.90;;
22080;SDS011;11207;59.512;18.050;2023-07-30T13:56:30;3.70;;;2.37;;
22080;SDS011;11207;59.512;18.050;2023-07-30T13:58:56;6.13;;;2.83;;
22080;SDS011;11207;59.512;18.050;2023-07-30T14:01:22;3.07;;;2.60;;
22080;SDS011;11207;59.512;18.050;2023-07-30T14:03:47;4.73;;;2.80;;
22080;SDS011;11207;59.512;18.050;2023-07-30T14:06:13;4.73;;;3.00;;
22080;SDS011;11207;59.512;18.050;2023-07-30T14:08:39;2.77;;;2.47;;
22080;SDS011;11207;59.512;18.050;2023-07-30T14:11:05;4.13;;;3.07;;
22080;SDS011;11207;59.512;18.050;2023-07-30T14:13:30;4.40;;;2.93;;
22080;SDS011;11207;59.512;18.050;2023-07-30T14:15:56;3.60;;;2.80;;
22080;SDS011;11207;59.512;18.050;2023-07-30T14:18:23;4.73;;;2.93;;
22080;SDS011;11207;59.512;18.050;2023-07-30T14:20:50;7.00;;;3.03;;
